createdAt,value
2022-12-01T00:00:03.175Z,25.05
2022-12-01T00:00:13.176Z,25.05
2022-12-01T00:00:23.555Z,25.04
2022-12-01T00:00:33.553Z,25.04
2022-12-01T00:00:43.677Z,25.05
2022-12-01T00:00:53.934Z,25.05
2022-12-01T00:01:03.942Z,25.04
2022-12-01T00:01:14.013Z,25.04
2022-12-01T00:01:24.009Z,25.04
2022-12-01T00:01:34.037Z,25.03
2022-12-01T00:01:44.260Z,25.03
2022-12-01T00:01:54.200Z,25.03
2022-12-01T00:02:04.254Z,25.03
2022-12-01T00:02:14.368Z,25.02
2022-12-01T00:02:24.324Z,25.02
2022-12-01T00:02:34.345Z,25.02
2022-12-01T00:02:44.413Z,25.02
2022-12-01T00:02:54.524Z,25.01
2022-12-01T00:03:04.568Z,25.01
2022-12-01T00:03:14.554Z,25.01
2022-12-01T00:03:24.576Z,25.01
2022-12-01T00:03:34.562Z,25.01
2022-12-01T00:03:44.826Z,25.01
2022-12-01T00:03:54.838Z,25.02
2022-12-01T00:04:04.842Z,25.01
2022-12-01T00:04:14.842Z,25.01
2022-12-01T00:04:24.969Z,25.01
2022-12-01T00:04:34.974Z,25.01
2022-12-01T00:04:44.981Z,25.01
2022-12-01T00:04:54.980Z,25.01
2022-12-01T00:05:05.105Z,25.01
2022-12-01T00:05:15.116Z,25.00
2022-12-01T00:05:25.249Z,25.01
2022-12-01T00:05:35.256Z,25.01
2022-12-01T00:05:45.269Z,25.00
2022-12-01T00:05:55.283Z,25.01
2022-12-01T00:06:05.300Z,25.01
2022-12-01T00:06:15.301Z,25.01
2022-12-01T00:06:25.316Z,25.02
2022-12-01T00:06:35.321Z,25.01
2022-12-01T00:06:45.334Z,25.01
2022-12-01T00:06:55.337Z,25.01
2022-12-01T00:07:05.350Z,25.01
2022-12-01T00:07:15.356Z,25.01
2022-12-01T00:07:25.430Z,25.01
2022-12-01T00:07:35.514Z,25.01
2022-12-01T00:07:45.566Z,25.01
2022-12-01T00:07:55.569Z,25.02
2022-12-01T00:08:05.615Z,25.01
2022-12-01T00:08:15.961Z,25.01
2022-12-01T00:08:25.963Z,25.01
2022-12-01T00:08:35.973Z,25.01
2022-12-01T00:08:45.967Z,25.01
2022-12-01T00:08:55.974Z,25.02
2022-12-01T00:09:05.976Z,25.00
2022-12-01T00:09:19.663Z,25.02
2022-12-01T00:09:25.990Z,24.96
2022-12-01T00:09:36.000Z,24.99
2022-12-01T00:09:46.290Z,24.99
2022-12-01T00:09:56.064Z,24.99
2022-12-01T00:10:06.181Z,24.99
2022-12-01T00:10:16.180Z,25.00
2022-12-01T00:10:26.328Z,25.00
2022-12-01T00:10:36.596Z,25.00
2022-12-01T00:10:46.601Z,25.00
2022-12-01T00:10:56.632Z,24.99
2022-12-01T00:11:06.619Z,25.00
2022-12-01T00:11:16.630Z,25.00
2022-12-01T00:11:26.758Z,25.00
2022-12-01T00:11:36.774Z,25.00
2022-12-01T00:11:46.771Z,25.00
2022-12-01T00:11:56.770Z,25.00
2022-12-01T00:12:06.901Z,25.00
2022-12-01T00:12:17.032Z,25.01
2022-12-01T00:12:27.175Z,25.00
2022-12-01T00:12:37.184Z,25.00
2022-12-01T00:12:47.461Z,25.00
2022-12-01T00:12:57.445Z,25.00
2022-12-01T00:13:07.560Z,25.00
2022-12-01T00:13:17.866Z,25.00
2022-12-01T00:13:27.834Z,25.00
2022-12-01T00:13:37.852Z,25.00
2022-12-01T00:13:48.230Z,25.00
2022-12-01T00:13:58.227Z,25.00
2022-12-01T00:14:08.349Z,25.00
2022-12-01T00:14:18.610Z,25.01
2022-12-01T00:14:28.730Z,25.01
2022-12-01T00:14:38.731Z,25.01
2022-12-01T00:14:48.995Z,25.01
2022-12-01T00:14:58.995Z,25.01
2022-12-01T00:15:09.111Z,25.01
2022-12-01T00:15:19.388Z,25.01
2022-12-01T00:15:29.390Z,25.01
2022-12-01T00:15:39.400Z,25.01
2022-12-01T00:15:49.777Z,25.01
2022-12-01T00:15:59.932Z,25.01
2022-12-01T00:16:09.951Z,25.01
2022-12-01T00:16:20.247Z,25.02
2022-12-01T00:16:30.382Z,25.02
2022-12-01T00:16:40.442Z,25.01
2022-12-01T00:16:50.389Z,25.02
2022-12-01T00:17:00.361Z,25.01
2022-12-01T00:17:10.336Z,25.02
2022-12-01T00:17:20.335Z,25.02
2022-12-01T00:17:30.465Z,25.02
2022-12-01T00:17:40.472Z,25.03
2022-12-01T00:17:50.495Z,25.03
2022-12-01T00:18:00.493Z,25.02
2022-12-01T00:18:10.520Z,25.02
2022-12-01T00:18:20.537Z,25.01
2022-12-01T00:18:30.529Z,25.02
2022-12-01T00:18:40.545Z,25.02
2022-12-01T00:18:50.665Z,25.02
2022-12-01T00:19:00.670Z,25.02
2022-12-01T00:19:10.929Z,25.02
2022-12-01T00:19:20.929Z,25.02
2022-12-01T00:19:31.049Z,25.03
2022-12-01T00:19:41.332Z,25.01
2022-12-01T00:19:51.322Z,25.02
2022-12-01T00:20:01.333Z,25.01
2022-12-01T00:20:11.711Z,25.01
2022-12-01T00:20:21.709Z,25.01
2022-12-01T00:20:31.841Z,25.01
2022-12-01T00:20:42.094Z,25.02
2022-12-01T00:20:52.213Z,25.01
2022-12-01T00:21:02.242Z,25.02
2022-12-01T00:21:12.498Z,25.01
2022-12-01T00:21:22.501Z,25.01
2022-12-01T00:21:32.501Z,25.02
2022-12-01T00:21:42.511Z,25.02
2022-12-01T00:21:52.532Z,25.02
2022-12-01T00:22:02.540Z,25.02
2022-12-01T00:22:12.543Z,25.02
2022-12-01T00:22:22.560Z,25.02
2022-12-01T00:22:32.569Z,25.02
2022-12-01T00:22:42.577Z,25.02
2022-12-01T00:22:52.582Z,25.01
2022-12-01T00:23:02.594Z,25.01
2022-12-01T00:23:12.608Z,25.02
2022-12-01T00:23:22.615Z,25.02
2022-12-01T00:23:32.654Z,25.01
2022-12-01T00:23:42.671Z,25.02
2022-12-01T00:23:52.677Z,25.01
2022-12-01T00:24:02.692Z,25.01
2022-12-01T00:24:12.710Z,25.02
2022-12-01T00:24:22.710Z,25.02
2022-12-01T00:24:32.717Z,25.02
2022-12-01T00:24:42.727Z,25.01
2022-12-01T00:24:52.856Z,25.01
2022-12-01T00:25:02.863Z,25.02
2022-12-01T00:25:13.119Z,25.02
2022-12-01T00:25:23.140Z,25.02
2022-12-01T00:25:33.151Z,25.02
2022-12-01T00:25:43.148Z,25.01
2022-12-01T00:25:53.169Z,25.02
2022-12-01T00:26:03.181Z,25.01
2022-12-01T00:26:13.184Z,25.01
2022-12-01T00:26:23.200Z,25.01
2022-12-01T00:26:33.208Z,25.02
2022-12-01T00:26:43.220Z,25.03
2022-12-01T00:26:53.227Z,25.02
2022-12-01T00:27:03.229Z,25.02
2022-12-01T00:27:13.247Z,25.02
2022-12-01T00:27:23.261Z,25.02
2022-12-01T00:27:33.270Z,25.02
2022-12-01T00:27:43.272Z,25.02
2022-12-01T00:27:53.289Z,25.02
2022-12-01T00:28:03.296Z,25.02
2022-12-01T00:28:13.307Z,25.02
2022-12-01T00:28:23.335Z,25.02
2022-12-01T00:28:33.330Z,25.02
2022-12-01T00:28:43.345Z,25.03
2022-12-01T00:28:53.341Z,25.02
2022-12-01T00:29:03.352Z,25.02
2022-12-01T00:29:13.364Z,25.03
2022-12-01T00:29:23.378Z,25.02
2022-12-01T00:29:33.378Z,25.02
2022-12-01T00:29:43.394Z,25.02
2022-12-01T00:29:53.403Z,25.02
2022-12-01T00:30:03.424Z,25.02
2022-12-01T00:30:13.423Z,25.02
2022-12-01T00:30:23.427Z,25.03
2022-12-01T00:30:33.441Z,25.02
2022-12-01T00:30:43.454Z,25.01
2022-12-01T00:30:53.455Z,25.02
2022-12-01T00:31:03.473Z,25.02
2022-12-01T00:31:13.479Z,25.02
2022-12-01T00:31:23.613Z,25.02
2022-12-01T00:31:33.619Z,25.02
2022-12-01T00:31:43.672Z,25.01
2022-12-01T00:31:53.732Z,25.02
2022-12-01T00:32:03.827Z,25.02
2022-12-01T00:32:13.905Z,25.02
2022-12-01T00:32:23.938Z,25.02
2022-12-01T00:32:33.944Z,25.02
2022-12-01T00:32:44.207Z,25.02
2022-12-01T00:32:54.226Z,25.02
2022-12-01T00:33:04.224Z,25.02
2022-12-01T00:33:14.232Z,25.03
2022-12-01T00:33:24.245Z,25.01
2022-12-01T00:33:34.258Z,25.02
2022-12-01T00:33:44.264Z,25.02
2022-12-01T00:33:54.273Z,25.02
2022-12-01T00:34:08.256Z,25.02
2022-12-01T00:34:14.401Z,24.96
2022-12-01T00:34:24.404Z,24.99
2022-12-01T00:34:34.412Z,25.00
2022-12-01T00:34:44.534Z,25.00
2022-12-01T00:34:54.565Z,25.01
2022-12-01T00:35:04.562Z,25.01
2022-12-01T00:35:14.559Z,25.02
2022-12-01T00:35:24.569Z,25.02
2022-12-01T00:35:34.577Z,25.02
2022-12-01T00:35:44.583Z,25.02
2022-12-01T00:35:54.591Z,25.02
2022-12-01T00:36:04.589Z,25.03
2022-12-01T00:36:14.588Z,25.02
2022-12-01T00:36:24.703Z,25.03
2022-12-01T00:36:34.710Z,25.03
2022-12-01T00:36:44.961Z,25.02
2022-12-01T00:36:54.968Z,25.02
2022-12-01T00:37:04.961Z,25.02
2022-12-01T00:37:14.969Z,25.02
2022-12-01T00:37:24.982Z,25.02
2022-12-01T00:37:35.002Z,25.02
2022-12-01T00:37:45.001Z,25.02
2022-12-01T00:37:55.011Z,25.02
2022-12-01T00:38:05.020Z,25.01
2022-12-01T00:38:15.029Z,25.02
2022-12-01T00:38:25.021Z,25.02
2022-12-01T00:38:35.034Z,25.02
2022-12-01T00:38:45.162Z,25.02
2022-12-01T00:38:55.171Z,25.01
2022-12-01T00:39:05.180Z,25.02
2022-12-01T00:39:15.190Z,25.03
2022-12-01T00:39:25.200Z,25.03
2022-12-01T00:39:35.459Z,25.03
2022-12-01T00:39:45.692Z,25.03
2022-12-01T00:39:55.706Z,25.02
2022-12-01T00:40:05.846Z,25.02
2022-12-01T00:40:15.853Z,25.03
2022-12-01T00:40:25.859Z,25.02
2022-12-01T00:40:35.869Z,25.03
2022-12-01T00:40:45.881Z,25.02
2022-12-01T00:40:55.891Z,25.03
2022-12-01T00:41:05.898Z,25.02
2022-12-01T00:41:15.910Z,25.03
2022-12-01T00:41:25.920Z,25.03
2022-12-01T00:41:35.937Z,25.03
2022-12-01T00:41:45.937Z,25.02
2022-12-01T00:41:55.949Z,25.02
2022-12-01T00:42:10.138Z,25.02
2022-12-01T00:42:16.071Z,24.97
2022-12-01T00:42:26.077Z,24.99
2022-12-01T00:42:36.089Z,25.00
2022-12-01T00:42:46.207Z,25.00
2022-12-01T00:42:56.212Z,25.01
2022-12-01T00:43:06.217Z,25.01
2022-12-01T00:43:16.227Z,25.01
2022-12-01T00:43:26.243Z,25.01
2022-12-01T00:43:36.218Z,25.02
2022-12-01T00:43:46.232Z,25.02
2022-12-01T00:43:56.230Z,25.02
2022-12-01T00:44:06.248Z,25.02
2022-12-01T00:44:16.255Z,25.01
2022-12-01T00:44:26.271Z,25.01
2022-12-01T00:44:36.266Z,25.01
2022-12-01T00:44:46.649Z,25.00
2022-12-01T00:44:56.647Z,25.00
2022-12-01T00:45:06.649Z,25.01
2022-12-01T00:45:16.647Z,25.01
2022-12-01T00:45:26.773Z,25.00
2022-12-01T00:45:36.848Z,25.01
2022-12-01T00:45:46.949Z,25.00
2022-12-01T00:45:57.042Z,25.01
2022-12-01T00:46:07.163Z,25.00
2022-12-01T00:46:17.106Z,25.01
2022-12-01T00:46:27.386Z,25.01
2022-12-01T00:46:37.392Z,25.01
2022-12-01T00:46:47.399Z,25.01
2022-12-01T00:46:57.407Z,25.02
2022-12-01T00:47:07.441Z,25.02
2022-12-01T00:47:17.439Z,25.02
2022-12-01T00:47:27.443Z,25.02
2022-12-01T00:47:37.460Z,25.03
2022-12-01T00:47:47.467Z,25.02
2022-12-01T00:47:57.501Z,25.02
2022-12-01T00:48:07.475Z,25.01
2022-12-01T00:48:17.510Z,25.02
2022-12-01T00:48:27.505Z,25.03
2022-12-01T00:48:37.508Z,25.03
2022-12-01T00:48:47.546Z,25.03
2022-12-01T00:48:57.546Z,25.02
2022-12-01T00:49:07.675Z,25.03
2022-12-01T00:49:17.941Z,25.03
2022-12-01T00:49:28.059Z,25.03
2022-12-01T00:49:38.083Z,25.03
2022-12-01T00:49:48.758Z,25.03
2022-12-01T00:49:58.352Z,25.02
2022-12-01T00:50:08.343Z,25.02
2022-12-01T00:50:18.352Z,25.02
2022-12-01T00:50:28.354Z,25.02
2022-12-01T00:50:38.388Z,25.04
2022-12-01T00:50:48.392Z,25.03
2022-12-01T00:50:58.385Z,25.03
2022-12-01T00:51:08.394Z,25.03
2022-12-01T00:51:18.419Z,25.03
2022-12-01T00:51:28.417Z,25.03
2022-12-01T00:51:38.423Z,25.02
2022-12-01T00:51:48.433Z,25.02
2022-12-01T00:51:58.451Z,25.03
2022-12-01T00:52:08.455Z,25.03
2022-12-01T00:52:18.480Z,25.03
2022-12-01T00:52:28.595Z,25.03
2022-12-01T00:52:38.851Z,25.03
2022-12-01T00:52:48.855Z,25.04
2022-12-01T00:52:58.870Z,25.03
2022-12-01T00:53:08.878Z,25.04
2022-12-01T00:53:18.888Z,25.04
2022-12-01T00:53:28.893Z,25.03
2022-12-01T00:53:38.915Z,25.03
2022-12-01T00:53:48.919Z,25.03
2022-12-01T00:53:58.927Z,25.03
2022-12-01T00:54:08.932Z,25.04
2022-12-01T00:54:18.964Z,25.04
2022-12-01T00:54:29.095Z,25.04
2022-12-01T00:54:39.105Z,25.04
2022-12-01T00:54:49.228Z,25.03
2022-12-01T00:54:59.230Z,25.04
2022-12-01T00:55:09.232Z,25.03
2022-12-01T00:55:19.241Z,25.03
2022-12-01T00:55:29.377Z,25.03
2022-12-01T00:55:39.376Z,25.04
2022-12-01T00:55:49.392Z,25.03
2022-12-01T00:55:59.392Z,25.03
2022-12-01T00:56:09.521Z,25.04
2022-12-01T00:56:19.520Z,25.03
2022-12-01T00:56:29.664Z,25.03
2022-12-01T00:56:39.671Z,25.03
2022-12-01T00:56:49.795Z,25.03
2022-12-01T00:56:59.827Z,25.03
2022-12-01T00:57:09.858Z,25.03
2022-12-01T00:57:19.875Z,25.02
2022-12-01T00:57:29.871Z,25.04
2022-12-01T00:57:39.886Z,25.04
2022-12-01T00:57:49.897Z,25.04
2022-12-01T00:57:59.900Z,25.04
2022-12-01T00:58:09.910Z,25.04
2022-12-01T00:58:19.921Z,25.04
2022-12-01T00:58:30.078Z,25.04
2022-12-01T00:58:40.081Z,25.04
2022-12-01T00:58:50.330Z,25.04
2022-12-01T00:59:00.331Z,25.04
2022-12-01T00:59:10.343Z,25.04
2022-12-01T00:59:20.362Z,25.04
2022-12-01T00:59:30.493Z,25.03
2022-12-01T00:59:40.504Z,25.03
2022-12-01T00:59:50.793Z,25.03
2022-12-01T01:00:00.578Z,25.04
2022-12-01T01:00:10.701Z,25.03
2022-12-01T01:00:20.706Z,25.03
2022-12-01T01:00:30.984Z,25.03
2022-12-01T01:00:40.982Z,25.03
2022-12-01T01:00:51.152Z,25.04
2022-12-01T01:01:01.515Z,25.03
2022-12-01T01:01:11.515Z,25.04
2022-12-01T01:01:21.607Z,25.04
2022-12-01T01:01:31.968Z,25.04
2022-12-01T01:01:42.046Z,25.04
2022-12-01T01:01:52.145Z,25.04
2022-12-01T01:02:02.376Z,25.04
2022-12-01T01:02:12.455Z,25.04
2022-12-01T01:02:22.549Z,25.04
2022-12-01T01:02:32.874Z,25.04
2022-12-01T01:02:42.983Z,25.04
2022-12-01T01:02:53.143Z,25.04
2022-12-01T01:03:03.309Z,25.04
2022-12-01T01:03:13.311Z,25.04
2022-12-01T01:03:23.322Z,25.05
2022-12-01T01:03:33.754Z,25.04
2022-12-01T01:03:43.724Z,25.03
2022-12-01T01:03:53.734Z,25.04
2022-12-01T01:04:03.736Z,25.05
2022-12-01T01:04:13.747Z,25.05
2022-12-01T01:04:23.749Z,25.04
2022-12-01T01:04:33.769Z,25.04
2022-12-01T01:04:43.773Z,25.04
2022-12-01T01:04:53.775Z,25.05
2022-12-01T01:05:03.776Z,25.04
2022-12-01T01:05:14.153Z,25.03
2022-12-01T01:05:24.155Z,25.03
2022-12-01T01:05:34.157Z,25.04
2022-12-01T01:05:44.173Z,25.03
2022-12-01T01:05:54.180Z,25.03
2022-12-01T01:06:04.199Z,25.03
2022-12-01T01:06:14.333Z,25.03
2022-12-01T01:06:24.332Z,25.02
2022-12-01T01:06:34.336Z,25.02
2022-12-01T01:06:44.338Z,25.02
2022-12-01T01:06:54.592Z,25.02
2022-12-01T01:07:04.609Z,25.03
2022-12-01T01:07:14.622Z,25.03
2022-12-01T01:07:24.670Z,25.03
2022-12-01T01:07:34.707Z,25.02
2022-12-01T01:07:44.811Z,25.03
2022-12-01T01:07:54.919Z,25.03
2022-12-01T01:08:04.924Z,25.02
2022-12-01T01:08:14.986Z,25.02
2022-12-01T01:08:24.988Z,25.01
2022-12-01T01:08:34.977Z,25.02
2022-12-01T01:08:44.980Z,25.02
2022-12-01T01:08:55.106Z,25.03
2022-12-01T01:09:05.110Z,25.03
2022-12-01T01:09:15.107Z,25.03
2022-12-01T01:09:25.115Z,25.03
2022-12-01T01:09:35.117Z,25.02
2022-12-01T01:09:45.465Z,25.03
2022-12-01T01:09:55.466Z,25.03
2022-12-01T01:10:05.482Z,25.03
2022-12-01T01:10:15.505Z,25.03
2022-12-01T01:10:25.515Z,25.03
2022-12-01T01:10:35.635Z,25.03
2022-12-01T01:10:45.639Z,25.03
2022-12-01T01:10:55.646Z,25.03
2022-12-01T01:11:05.767Z,25.04
2022-12-01T01:11:15.762Z,25.04
2022-12-01T01:11:25.899Z,25.03
2022-12-01T01:11:35.908Z,25.03
2022-12-01T01:11:46.026Z,25.04
2022-12-01T01:11:56.285Z,25.03
2022-12-01T01:12:06.409Z,25.04
2022-12-01T01:12:16.424Z,25.03
2022-12-01T01:12:26.677Z,25.03
2022-12-01T01:12:36.682Z,25.03
2022-12-01T01:12:46.797Z,25.03
2022-12-01T01:12:57.063Z,25.03
2022-12-01T01:13:07.059Z,25.03
2022-12-01T01:13:17.077Z,25.02
2022-12-01T01:13:27.081Z,25.03
2022-12-01T01:13:37.119Z,25.03
2022-12-01T01:13:47.104Z,25.02
2022-12-01T01:13:57.122Z,25.02
2022-12-01T01:14:07.133Z,25.02
2022-12-01T01:14:17.140Z,25.02
2022-12-01T01:14:27.143Z,25.02
2022-12-01T01:14:37.264Z,25.03
2022-12-01T01:14:47.200Z,25.02
2022-12-01T01:14:57.206Z,25.03
2022-12-01T01:15:07.371Z,25.03
2022-12-01T01:15:17.374Z,25.03
2022-12-01T01:15:27.411Z,25.03
2022-12-01T01:15:37.408Z,25.03
2022-12-01T01:15:47.424Z,25.02
2022-12-01T01:15:57.448Z,25.03
2022-12-01T01:16:07.762Z,25.04
2022-12-01T01:16:17.733Z,25.04
2022-12-01T01:16:27.691Z,25.04
2022-12-01T01:16:37.776Z,25.04
2022-12-01T01:16:47.824Z,25.04
2022-12-01T01:16:58.159Z,25.03
2022-12-01T01:17:08.226Z,25.04
2022-12-01T01:17:18.226Z,25.04
2022-12-01T01:17:28.235Z,25.03
2022-12-01T01:17:38.239Z,25.03
2022-12-01T01:17:48.244Z,25.03
2022-12-01T01:17:58.252Z,25.04
2022-12-01T01:18:08.274Z,25.04
2022-12-01T01:18:18.276Z,25.03
2022-12-01T01:18:28.278Z,25.03
2022-12-01T01:18:38.296Z,25.03
2022-12-01T01:18:48.304Z,25.03
2022-12-01T01:18:58.331Z,25.03
2022-12-01T01:19:08.329Z,25.02
2022-12-01T01:19:18.364Z,25.03
2022-12-01T01:19:28.374Z,25.02
2022-12-01T01:19:38.485Z,25.02
2022-12-01T01:19:48.818Z,25.02
2022-12-01T01:19:58.611Z,25.01
2022-12-01T01:20:08.614Z,25.02
2022-12-01T01:20:18.626Z,25.02
2022-12-01T01:20:28.635Z,25.02
2022-12-01T01:20:38.647Z,25.02
2022-12-01T01:20:48.656Z,25.02
2022-12-01T01:20:58.663Z,25.02
2022-12-01T01:21:08.673Z,25.02
2022-12-01T01:21:18.686Z,25.02
2022-12-01T01:21:28.692Z,25.02
2022-12-01T01:21:38.704Z,25.02
2022-12-01T01:21:48.715Z,25.01
2022-12-01T01:21:58.724Z,25.02
2022-12-01T01:22:08.716Z,25.02
2022-12-01T01:22:18.733Z,25.03
2022-12-01T01:22:28.854Z,25.02
2022-12-01T01:22:38.868Z,25.02
2022-12-01T01:22:49.129Z,25.02
2022-12-01T01:22:59.133Z,25.02
2022-12-01T01:23:09.251Z,25.02
2022-12-01T01:23:19.529Z,25.02
2022-12-01T01:23:29.646Z,25.02
2022-12-01T01:23:39.656Z,25.02
2022-12-01T01:23:49.910Z,25.02
2022-12-01T01:23:59.912Z,25.02
2022-12-01T01:24:09.919Z,25.03
2022-12-01T01:24:19.941Z,25.03
2022-12-01T01:24:29.950Z,25.03
2022-12-01T01:24:39.958Z,25.02
2022-12-01T01:24:49.980Z,25.02
2022-12-01T01:24:59.985Z,25.02
2022-12-01T01:25:09.988Z,25.02
2022-12-01T01:25:19.993Z,25.03
2022-12-01T01:25:29.997Z,25.02
2022-12-01T01:25:40.015Z,25.02
2022-12-01T01:25:50.017Z,25.02
2022-12-01T01:26:00.033Z,25.01
2022-12-01T01:26:10.057Z,25.01
2022-12-01T01:26:20.064Z,25.02
2022-12-01T01:26:30.194Z,25.02
2022-12-01T01:26:40.451Z,25.02
2022-12-01T01:26:50.455Z,25.01
2022-12-01T01:27:00.454Z,25.02
2022-12-01T01:27:10.833Z,25.02
2022-12-01T01:27:20.844Z,25.02
2022-12-01T01:27:30.837Z,25.02
2022-12-01T01:27:40.836Z,25.02
2022-12-01T01:27:50.846Z,25.02
2022-12-01T01:28:00.851Z,25.03
2022-12-01T01:28:10.865Z,25.02
2022-12-01T01:28:20.871Z,25.03
2022-12-01T01:28:30.885Z,25.02
2022-12-01T01:28:40.917Z,25.03
2022-12-01T01:28:50.897Z,25.03
2022-12-01T01:29:00.913Z,25.02
2022-12-01T01:29:10.918Z,25.03
2022-12-01T01:29:20.921Z,25.02
2022-12-01T01:29:30.933Z,25.03
2022-12-01T01:29:40.951Z,25.03
2022-12-01T01:29:51.142Z,25.02
2022-12-01T01:30:01.010Z,25.03
2022-12-01T01:30:11.020Z,25.02
2022-12-01T01:30:21.245Z,25.03
2022-12-01T01:30:31.130Z,25.02
2022-12-01T01:30:41.180Z,25.02
2022-12-01T01:30:51.209Z,25.02
2022-12-01T01:31:01.373Z,25.02
2022-12-01T01:31:11.616Z,25.02
2022-12-01T01:31:21.651Z,25.02
2022-12-01T01:31:31.566Z,25.02
2022-12-01T01:31:41.576Z,25.03
2022-12-01T01:31:51.586Z,25.03
2022-12-01T01:32:01.612Z,25.03
2022-12-01T01:32:11.604Z,25.03
2022-12-01T01:32:21.618Z,25.05
2022-12-01T01:32:31.618Z,25.04
2022-12-01T01:32:41.621Z,25.04
2022-12-01T01:32:51.623Z,25.05
2022-12-01T01:33:01.628Z,25.04
2022-12-01T01:33:11.759Z,25.04
2022-12-01T01:33:21.763Z,25.04
2022-12-01T01:33:31.785Z,25.04
2022-12-01T01:33:41.788Z,25.04
2022-12-01T01:33:51.797Z,25.04
2022-12-01T01:34:02.056Z,25.04
2022-12-01T01:34:12.180Z,25.04
2022-12-01T01:34:22.181Z,25.05
2022-12-01T01:34:32.454Z,25.04
2022-12-01T01:34:42.458Z,25.04
2022-12-01T01:34:52.466Z,25.04
2022-12-01T01:35:02.463Z,25.04
2022-12-01T01:35:12.483Z,25.03
2022-12-01T01:35:22.498Z,25.04
2022-12-01T01:35:32.497Z,25.03
2022-12-01T01:35:42.517Z,25.05
2022-12-01T01:35:52.519Z,25.04
2022-12-01T01:36:02.517Z,25.04
2022-12-01T01:36:12.528Z,25.04
2022-12-01T01:36:22.532Z,25.04
2022-12-01T01:36:32.675Z,25.05
2022-12-01T01:36:42.660Z,25.03
2022-12-01T01:36:52.666Z,25.04
2022-12-01T01:37:02.677Z,25.04
2022-12-01T01:37:12.812Z,25.03
2022-12-01T01:37:22.966Z,25.03
2022-12-01T01:37:32.984Z,25.04
2022-12-01T01:37:42.981Z,25.04
2022-12-01T01:37:53.369Z,25.04
2022-12-01T01:38:03.395Z,25.04
2022-12-01T01:38:13.390Z,25.03
2022-12-01T01:38:23.413Z,25.03
2022-12-01T01:38:33.439Z,25.03
2022-12-01T01:38:43.445Z,25.03
2022-12-01T01:38:53.460Z,25.03
2022-12-01T01:39:03.458Z,25.04
2022-12-01T01:39:13.578Z,25.03
2022-12-01T01:39:23.580Z,25.02
2022-12-01T01:39:33.840Z,25.03
2022-12-01T01:39:43.851Z,25.03
2022-12-01T01:39:53.858Z,25.02
2022-12-01T01:40:03.864Z,25.03
2022-12-01T01:40:13.987Z,25.03
2022-12-01T01:40:23.988Z,25.03
2022-12-01T01:40:33.993Z,25.03
2022-12-01T01:40:44.015Z,25.03
2022-12-01T01:40:54.018Z,25.03
2022-12-01T01:41:04.017Z,25.02
2022-12-01T01:41:14.270Z,25.02
2022-12-01T01:41:24.288Z,25.03
2022-12-01T01:41:34.290Z,25.03
2022-12-01T01:41:44.301Z,25.03
2022-12-01T01:41:54.312Z,25.03
2022-12-01T01:42:04.321Z,25.03
2022-12-01T01:42:14.332Z,25.04
2022-12-01T01:42:24.358Z,25.04
2022-12-01T01:42:34.374Z,25.05
2022-12-01T01:42:44.383Z,25.05
2022-12-01T01:42:54.387Z,25.04
2022-12-01T01:43:04.393Z,25.04
2022-12-01T01:43:14.405Z,25.04
2022-12-01T01:43:24.403Z,25.04
2022-12-01T01:43:34.529Z,25.03
2022-12-01T01:43:44.567Z,25.03
2022-12-01T01:43:54.553Z,25.03
2022-12-01T01:44:04.813Z,25.03
2022-12-01T01:44:14.817Z,25.03
2022-12-01T01:44:24.816Z,25.03
2022-12-01T01:44:35.195Z,25.03
2022-12-01T01:44:45.199Z,25.03
2022-12-01T01:44:55.316Z,25.03
2022-12-01T01:45:05.597Z,25.04
2022-12-01T01:45:15.591Z,25.03
2022-12-01T01:45:25.596Z,25.04
2022-12-01T01:45:35.628Z,25.03
2022-12-01T01:45:45.654Z,25.04
2022-12-01T01:45:55.712Z,25.04
2022-12-01T01:46:05.820Z,25.04
2022-12-01T01:46:15.899Z,25.03
2022-12-01T01:46:25.925Z,25.04
2022-12-01T01:46:35.918Z,25.03
2022-12-01T01:46:46.176Z,25.03
2022-12-01T01:46:56.309Z,25.03
2022-12-01T01:47:06.325Z,25.03
2022-12-01T01:47:16.585Z,25.04
2022-12-01T01:47:26.624Z,25.04
2022-12-01T01:47:36.645Z,25.03
2022-12-01T01:47:46.655Z,25.05
2022-12-01T01:47:56.666Z,25.03
2022-12-01T01:48:06.676Z,25.04
2022-12-01T01:48:16.685Z,25.03
2022-12-01T01:48:26.706Z,25.04
2022-12-01T01:48:36.721Z,25.03
2022-12-01T01:48:46.718Z,25.04
2022-12-01T01:48:56.724Z,25.03
2022-12-01T01:49:06.743Z,25.04
2022-12-01T01:49:16.744Z,25.03
2022-12-01T01:49:26.759Z,25.02
2022-12-01T01:49:36.764Z,25.03
2022-12-01T01:49:47.184Z,25.03
2022-12-01T01:49:56.811Z,25.02
2022-12-01T01:50:06.814Z,25.02
2022-12-01T01:50:16.821Z,25.01
2022-12-01T01:50:26.826Z,25.01
2022-12-01T01:50:36.826Z,25.02
2022-12-01T01:50:46.832Z,25.02
2022-12-01T01:50:56.952Z,25.02
2022-12-01T01:51:06.973Z,25.02
2022-12-01T01:51:17.228Z,25.02
2022-12-01T01:51:27.246Z,25.02
2022-12-01T01:51:37.245Z,25.02
2022-12-01T01:51:47.256Z,25.01
2022-12-01T01:51:57.280Z,25.01
2022-12-01T01:52:07.286Z,25.01
2022-12-01T01:52:17.288Z,25.01
2022-12-01T01:52:27.300Z,25.01
2022-12-01T01:52:37.305Z,25.02
2022-12-01T01:52:47.321Z,25.02
2022-12-01T01:52:57.337Z,25.02
2022-12-01T01:53:07.350Z,25.02
2022-12-01T01:53:17.350Z,25.02
2022-12-01T01:53:27.360Z,25.03
2022-12-01T01:53:37.368Z,25.02
2022-12-01T01:53:47.379Z,25.02
2022-12-01T01:53:57.386Z,25.03
2022-12-01T01:54:07.767Z,25.02
2022-12-01T01:54:17.763Z,25.02
2022-12-01T01:54:27.881Z,25.02
2022-12-01T01:54:38.141Z,25.02
2022-12-01T01:54:48.156Z,25.01
2022-12-01T01:54:58.193Z,25.02
2022-12-01T01:55:08.196Z,25.02
2022-12-01T01:55:18.202Z,25.02
2022-12-01T01:55:28.322Z,25.02
2022-12-01T01:55:38.333Z,25.01
2022-12-01T01:55:48.330Z,25.02
2022-12-01T01:55:58.342Z,25.01
2022-12-01T01:56:08.350Z,25.01
2022-12-01T01:56:18.608Z,25.02
2022-12-01T01:56:28.612Z,25.01
2022-12-01T01:56:38.618Z,25.01
2022-12-01T01:56:48.621Z,25.01
2022-12-01T01:56:58.627Z,25.01
2022-12-01T01:57:08.628Z,25.02
2022-12-01T01:57:18.643Z,25.01
2022-12-01T01:57:28.639Z,25.02
2022-12-01T01:57:38.653Z,25.02
2022-12-01T01:57:48.651Z,25.01
2022-12-01T01:57:58.661Z,25.01
2022-12-01T01:58:08.785Z,25.01
2022-12-01T01:58:18.796Z,25.01
2022-12-01T01:58:28.789Z,25.01
2022-12-01T01:58:38.799Z,25.01
2022-12-01T01:58:48.842Z,25.00
2022-12-01T01:58:58.826Z,25.02
2022-12-01T01:59:09.084Z,25.01
2022-12-01T01:59:19.081Z,25.01
2022-12-01T01:59:29.085Z,25.01
2022-12-01T01:59:39.093Z,25.01
2022-12-01T01:59:49.339Z,25.01
2022-12-01T01:59:59.210Z,25.01
2022-12-01T02:00:09.328Z,25.01
2022-12-01T02:00:19.334Z,25.01
2022-12-01T02:00:29.454Z,25.01
2022-12-01T02:00:39.468Z,25.00
2022-12-01T02:00:49.520Z,25.00
2022-12-01T02:00:59.541Z,25.00
2022-12-01T02:01:09.606Z,25.00
2022-12-01T02:01:20.007Z,25.00
2022-12-01T02:01:29.995Z,25.01
2022-12-01T02:01:40.127Z,25.01
2022-12-01T02:01:50.051Z,25.02
2022-12-01T02:02:00.115Z,25.01
2022-12-01T02:02:10.228Z,25.01
2022-12-01T02:02:20.214Z,25.01
2022-12-01T02:02:30.300Z,25.01
2022-12-01T02:02:40.354Z,25.01
2022-12-01T02:02:50.449Z,25.02
2022-12-01T02:03:00.466Z,25.01
2022-12-01T02:03:10.389Z,25.01
2022-12-01T02:03:20.388Z,25.01
2022-12-01T02:03:30.400Z,25.01
2022-12-01T02:03:40.542Z,25.01
2022-12-01T02:03:50.674Z,25.01
2022-12-01T02:04:00.684Z,25.02
2022-12-01T02:04:10.966Z,25.02
2022-12-01T02:04:20.965Z,25.01
2022-12-01T02:04:31.093Z,25.02
2022-12-01T02:04:41.366Z,25.01
2022-12-01T02:04:51.376Z,25.02
2022-12-01T02:05:01.382Z,25.01
2022-12-01T02:05:11.387Z,25.01
2022-12-01T02:05:21.415Z,25.01
2022-12-01T02:05:31.411Z,25.01
2022-12-01T02:05:41.418Z,25.01
2022-12-01T02:05:51.426Z,25.01
2022-12-01T02:06:04.638Z,25.01
2022-12-01T02:06:11.773Z,24.98
2022-12-01T02:06:21.767Z,24.99
2022-12-01T02:06:31.899Z,24.99
2022-12-01T02:06:42.154Z,24.99
2022-12-01T02:06:52.289Z,25.00
2022-12-01T02:07:02.298Z,25.00
2022-12-01T02:07:12.556Z,25.01
2022-12-01T02:07:22.610Z,25.00
2022-12-01T02:07:32.735Z,25.00
2022-12-01T02:07:42.689Z,25.00
2022-12-01T02:07:52.717Z,25.00
2022-12-01T02:08:02.851Z,25.00
2022-12-01T02:08:12.766Z,25.00
2022-12-01T02:08:22.776Z,25.00
2022-12-01T02:08:32.794Z,25.00
2022-12-01T02:08:42.797Z,25.00
2022-12-01T02:08:52.805Z,25.01
2022-12-01T02:09:02.819Z,25.01
2022-12-01T02:09:12.947Z,25.00
2022-12-01T02:09:22.976Z,25.00